This is the latest recevied weather packets stored in our database for station/object E24CR-1. If no packets are shown the sender has not sent any weather packets the latest 1 day(s).
| Time | Temp. | Humidity | Pressure | Rain* | Wind** | Luminosity | Snow |
|---|---|---|---|---|---|---|---|
| 1836274367 | 34.44° C | 60% | 951 hPa | - | 0 m/s | 0 W/m² | - |
| 1836274242 | 31.11° C | 72% | 951 hPa | - | 0 m/s | 0 W/m² | - |
| 1778058191 | 33.89° C | 47% | 948 hPa | - | 0 m/s | 0 W/m² | - |
| 1778057567 | 32.78° C | 47% | 948 hPa | - | 0 m/s | 0 W/m² | - |
| 1778056942 | 35° C | 36% | 948 hPa | - | 0 m/s | 0 W/m² | - |
| 1778056318 | 34.44° C | 37% | 948 hPa | - | 0 m/s | 0 W/m² | - |
| 1778055694 | 35.56° C | 35% | 948 hPa | - | 0 m/s | 0 W/m² | - |
| 1778055070 | 36.67° C | 34% | 948 hPa | - | 0 m/s | 0 W/m² | - |
| 1778054444 | 36.11° C | 35% | 948 hPa | - | 0 m/s | 0 W/m² | - |
| 1778053820 | 36.11° C | 35% | 948 hPa | - | 0 m/s | 0 W/m² | - |
| 1778053196 | 36.67° C | 35% | 948 hPa | - | 0 m/s | 0 W/m² | - |
| 1778052572 | 38.33° C | 33% | 948 hPa | - | 0 m/s | 0 W/m² | - |
| 1778051947 | 38.33° C | 32% | 949 hPa | - | 0 m/s | 0 W/m² | - |
| 1778051323 | 38.89° C | 33% | 949 hPa | - | 0 m/s | 0 W/m² | - |
| 1778050699 | 40° C | 31% | 949 hPa | - | 0 m/s | 0 W/m² | - |
| 1778050075 | 38.33° C | 32% | 950 hPa | - | 0 m/s | 0 W/m² | - |
| 1778049450 | 38.89° C | 33% | 950 hPa | - | 0 m/s | 0 W/m² | - |
| 1778048826 | 40° C | 33% | 950 hPa | - | 0 m/s | 0 W/m² | - |
| 1778048202 | 37.78° C | 35% | 950 hPa | - | 0 m/s | 0 W/m² | - |
| 1778047578 | 37.22° C | 35% | 951 hPa | - | 0 m/s | 0 W/m² | - |
| 1778046951 | 39.44° C | 33% | 951 hPa | - | 0 m/s | 0 W/m² | - |
| 1778046326 | 38.89° C | 34% | 951 hPa | - | 0 m/s | 0 W/m² | - |
| 1778045700 | 38.33° C | 33% | 951 hPa | - | 0 m/s | 0 W/m² | - |
| 1778045076 | 37.78° C | 36% | 951 hPa | - | 0 m/s | 0 W/m² | - |
| 1778044451 | 38.33° C | 36% | 951 hPa | - | 0 m/s | 0 W/m² | - |
* Rain since midnight (hover to see other rain measurements)
** Current wind speed in m/s (hover to see current wind gust speed)